Time;durP1;ratioP1;P1;durP2;ratioP2;P2;SDS_P1;SDS_P2;PMS_P1;PMS_P2;Temp;Humidity;BMP_temperature;BMP_pressure;BME280_temperature;BME280_humidity;BME280_pressure;Samples;Min_cycle;Max_cycle;Signal;HPM_P1;HPM_P2
2023/07/15 00:00:22;;;;;;;4.65;2.65;;;;;;;20.43;91.30;100119.53;6219071;28;20062;-72
2023/07/15 00:03:22;;;;;;;2.97;2.25;;;;;;;20.38;90.75;100127.09;6221708;28;20406;-71
2023/07/15 00:06:27;;;;;;;3.23;2.60;;;;;;;20.22;90.96;100133.09;6219560;28;20108;-72
2023/07/15 00:09:30;;;;;;;3.65;2.33;;;;;;;20.03;92.76;100121.69;6219115;28;20541;-73
2023/07/15 00:12:31;;;;;;;6.57;2.42;;;;;;;20.06;91.58;100125.88;6218773;28;20132;-71
2023/07/15 00:15:32;;;;;;;2.47;2.15;;;;;;;20.11;90.12;100135.00;6219275;28;20057;-71
2023/07/15 00:18:35;;;;;;;2.60;2.40;;;;;;;20.06;90.33;100139.13;6213011;28;20509;-72
2023/07/15 00:21:39;;;;;;;2.45;2.03;;;;;;;20.16;90.47;100144.31;6214773;28;20056;-72
2023/07/15 00:24:42;;;;;;;3.55;2.20;;;;;;;20.09;89.36;100144.09;6227104;28;20058;-72
2023/07/15 00:27:44;;;;;;;6.72;2.47;;;;;;;20.07;89.81;100138.13;6217789;28;20112;-72
2023/07/15 00:30:45;;;;;;;3.80;2.55;;;;;;;20.18;89.03;100145.00;6207489;28;20472;-71
2023/07/15 00:33:47;;;;;;;6.37;2.87;;;;;;;20.12;88.88;100144.63;6200868;28;20116;-72
2023/07/15 00:36:50;;;;;;;;;;;;;;;20.13;88.00;100142.81;6216017;28;20108;-72
2023/07/15 00:39:51;;;;;;;4.38;2.22;;;;;;;20.16;88.49;100145.16;6226843;28;20250;-72
2023/07/15 00:43:30;;;;;;;3.53;2.53;;;;;;;20.18;87.12;100150.28;6224987;28;20061;-72
2023/07/15 00:47:03;;;;;;;5.65;2.58;;;;;;;19.96;88.63;100147.16;6216294;28;20058;-72
2023/07/15 00:50:05;;;;;;;6.05;2.67;;;;;;;19.95;89.79;100142.00;6217449;28;20483;-72
2023/07/15 00:53:06;;;;;;;3.08;2.25;;;;;;;19.95;89.56;100148.13;6201946;28;20051;-72
2023/07/15 00:56:09;;;;;;;2.33;2.13;;;;;;;19.89;90.24;100135.47;6201906;28;20059;-72
2023/07/15 00:59:11;;;;;;;3.00;2.50;;;;;;;19.76;92.01;100145.63;6207038;28;20064;-71
2023/07/15 01:02:12;;;;;;;4.25;2.60;;;;;;;19.65;92.64;100141.38;6224842;28;20073;-72
2023/07/15 01:05:16;;;;;;;3.38;2.33;;;;;;;19.61;92.37;100132.88;6225185;28;20056;-72
2023/07/15 01:08:17;;;;;;;5.35;2.70;;;;;;;19.58;94.65;100135.84;6205248;28;20057;-72
2023/07/15 01:11:18;;;;;;;2.90;2.33;;;;;;;19.63;93.98;100133.56;6216012;28;20047;-73
2023/07/15 01:14:19;;;;;;;4.47;2.00;;;;;;;19.59;93.60;100120.78;6216723;28;20513;-72
2023/07/15 01:17:20;;;;;;;3.53;2.53;;;;;;;19.58;93.00;100127.06;6216829;28;20058;-73
2023/07/15 01:20:24;;;;;;;3.13;2.40;;;;;;;19.61;92.76;100129.41;6216591;28;20050;-72
2023/07/15 01:23:29;;;;;;;3.50;2.55;;;;;;;19.49;93.14;100134.91;6201241;28;20054;-72
2023/07/15 01:26:31;;;;;;;4.18;2.33;;;;;;;19.45;93.88;100128.25;6216246;28;20050;-71
2023/07/15 01:29:32;;;;;;;5.03;2.83;;;;;;;19.37;95.03;100122.88;6201147;28;20054;-71
2023/07/15 01:32:32;;;;;;;3.80;3.00;;;;;;;19.25;95.72;100119.63;6208025;28;20061;-72
2023/07/15 01:35:35;;;;;;;3.97;2.47;;;;;;;19.15;96.71;100123.28;6216230;28;20141;-71
2023/07/15 01:38:37;;;;;;;3.60;2.80;;;;;;;19.13;98.13;100121.63;6215856;28;20471;-71
2023/07/15 01:41:40;;;;;;;4.15;2.85;;;;;;;19.18;97.23;100121.16;6219998;28;20133;-72
2023/07/15 01:44:41;;;;;;;2.40;2.08;;;;;;;19.29;96.89;100117.50;6224099;28;20065;-72
2023/07/15 01:47:41;;;;;;;5.73;2.73;;;;;;;19.26;96.28;100117.78;6224826;28;20050;-70
2023/07/15 01:50:43;;;;;;;4.43;2.97;;;;;;;19.24;96.09;100117.94;6223861;28;20394;-71
2023/07/15 01:53:43;;;;;;;2.63;2.42;;;;;;;19.28;96.28;100114.00;6223733;28;20132;-71
2023/07/15 01:56:46;;;;;;;2.80;2.55;;;;;;;19.07;97.76;100105.53;6224659;28;20136;-71
2023/07/15 01:59:46;;;;;;;8.80;2.65;;;;;;;18.98;98.01;100112.50;6222854;28;20111;-71
2023/07/15 02:02:47;;;;;;;3.28;2.28;;;;;;;18.98;98.36;100109.03;6221104;28;20057;-71
2023/07/15 02:05:48;;;;;;;4.33;2.40;;;;;;;18.96;99.63;100116.28;6200196;28;20471;-71
2023/07/15 02:08:51;;;;;;;6.60;3.33;;;;;;;18.85;99.78;100123.41;6200205;28;20046;-71
2023/07/15 02:11:52;;;;;;;4.55;2.63;;;;;;;18.81;100.00;100124.69;6199811;28;20050;-71
2023/07/15 02:14:53;;;;;;;6.70;2.60;;;;;;;18.81;99.76;100118.56;6219607;28;20399;-71
2023/07/15 02:17:54;;;;;;;4.00;2.63;;;;;;;18.82;100.00;100121.06;6220863;28;20414;-72
2023/07/15 02:20:55;;;;;;;3.53;2.40;;;;;;;18.73;100.00;100121.91;6223320;28;20050;-72
2023/07/15 02:23:56;;;;;;;5.07;2.63;;;;;;;18.77;100.00;100122.44;6223411;28;20184;-72
2023/07/15 02:26:56;;;;;;;5.10;2.60;;;;;;;18.75;100.00;100127.88;6224121;28;20054;-71
2023/07/15 02:29:57;;;;;;;4.63;2.63;;;;;;;18.74;99.89;100118.28;6224218;28;20084;-71
2023/07/15 02:32:58;;;;;;;6.97;2.70;;;;;;;18.64;100.00;100128.88;6222665;28;20050;-71
2023/07/15 02:35:58;;;;;;;4.50;3.10;;;;;;;18.59;100.00;100127.63;6222862;28;20050;-71
2023/07/15 02:38:59;;;;;;;4.13;2.88;;;;;;;18.57;100.00;100126.94;6207251;28;20097;-71
2023/07/15 02:42:00;;;;;;;3.60;2.70;;;;;;;18.59;99.86;100130.28;6214725;28;20054;-72
2023/07/15 02:45:03;;;;;;;3.53;2.60;;;;;;;18.59;99.37;100136.41;6231094;28;20128;-72
2023/07/15 02:48:04;;;;;;;5.35;2.85;;;;;;;18.57;99.51;100132.25;6222508;28;20129;-72
2023/07/15 02:51:04;;;;;;;3.10;2.23;;;;;;;18.45;100.00;100136.84;6223793;28;20392;-72
2023/07/15 02:54:06;;;;;;;3.43;2.70;;;;;;;18.39;100.00;100140.06;6223855;28;20058;-72
2023/07/15 02:57:07;;;;;;;5.37;2.70;;;;;;;18.38;100.00;100135.75;6222706;28;20069;-71
2023/07/15 03:00:11;;;;;;;4.63;2.77;;;;;;;18.54;99.58;100130.72;6221330;28;20148;-72
2023/07/15 03:03:17;;;;;;;2.67;2.20;;;;;;;18.47;100.00;100130.47;6223423;28;20057;-72
2023/07/15 03:06:19;;;;;;;4.55;2.70;;;;;;;18.46;100.00;100133.25;6219584;28;20076;-72
2023/07/15 03:09:22;;;;;;;5.60;2.58;;;;;;;18.44;100.00;100143.13;6222092;28;20116;-71
2023/07/15 03:12:23;;;;;;;8.07;2.90;;;;;;;18.50;99.61;100134.63;6222514;28;20054;-71
2023/07/15 03:15:24;;;;;;;3.77;2.80;;;;;;;18.61;98.93;100142.38;6222899;28;20049;-72
2023/07/15 03:18:25;;;;;;;5.15;2.63;;;;;;;18.62;99.57;100141.41;6221901;28;20050;-71
2023/07/15 03:21:26;;;;;;;5.05;2.67;;;;;;;18.64;100.00;100139.47;6222011;28;20099;-71
2023/07/15 03:24:27;;;;;;;4.75;3.13;;;;;;;18.60;100.00;100142.53;6222303;28;20054;-72
2023/07/15 03:27:28;;;;;;;2.53;2.33;;;;;;;18.59;100.00;100146.97;6223240;28;20073;-72
2023/07/15 03:30:28;;;;;;;3.83;2.53;;;;;;;18.58;99.94;100149.78;6222917;28;20112;-71
2023/07/15 03:33:29;;;;;;;2.67;2.33;;;;;;;18.55;99.52;100147.41;6223080;28;20482;-72
2023/07/15 03:36:30;;;;;;;4.17;2.63;;;;;;;18.75;99.99;100156.94;6223301;28;20054;-72
2023/07/15 03:39:31;;;;;;;2.87;2.40;;;;;;;18.77;100.00;100164.75;6222966;28;20088;-71
2023/07/15 03:42:31;;;;;;;2.97;2.20;;;;;;;18.86;100.00;100163.88;6222185;28;20054;-72
2023/07/15 03:45:35;;;;;;;5.17;2.43;;;;;;;19.10;100.00;100163.38;6222949;28;20076;-72
2023/07/15 03:48:41;;;;;;;3.33;2.65;;;;;;;19.25;98.43;100159.28;6221734;28;20053;-72
2023/07/15 03:51:42;;;;;;;2.85;2.28;;;;;;;19.17;98.41;100155.69;6222965;28;20057;-72
2023/07/15 03:54:43;;;;;;;5.17;2.83;;;;;;;19.21;98.32;100152.63;6222826;28;20054;-72
2023/07/15 03:57:44;;;;;;;4.65;2.35;;;;;;;19.28;95.83;100148.41;6224592;28;20054;-72
2023/07/15 04:00:44;;;;;;;3.60;2.70;;;;;;;19.21;96.46;100157.06;6227342;28;20124;-71
2023/07/15 04:03:45;;;;;;;3.70;2.70;;;;;;;19.34;96.13;100154.94;6226483;28;20108;-72
2023/07/15 04:06:46;;;;;;;4.27;2.93;;;;;;;19.40;94.10;100154.34;6226012;28;20137;-71
2023/07/15 04:09:46;;;;;;;3.73;2.37;;;;;;;19.48;93.20;100159.72;6227173;28;20470;-71
2023/07/15 04:12:47;;;;;;;4.67;2.40;;;;;;;19.43;94.45;100156.66;6224146;28;20038;-71
2023/07/15 04:15:48;;;;;;;3.97;3.00;;;;;;;19.46;94.50;100159.03;6206857;28;20054;-72
2023/07/15 04:18:49;;;;;;;5.47;2.80;;;;;;;19.42;95.21;100154.19;6226913;28;20061;-71
2023/07/15 04:21:49;;;;;;;3.88;2.65;;;;;;;19.43;93.16;100154.03;6225891;28;20129;-72
2023/07/15 04:24:50;;;;;;;4.90;2.63;;;;;;;19.38;93.55;100155.47;6225947;28;20054;-71
2023/07/15 04:27:53;;;;;;;3.70;2.47;;;;;;;19.41;93.62;100153.34;6226603;28;20053;-71
2023/07/15 04:30:54;;;;;;;2.97;2.50;;;;;;;19.55;92.94;100156.47;6226840;28;20759;-72
2023/07/15 04:33:55;;;;;;;3.33;2.60;;;;;;;19.66;92.32;100162.41;6226844;28;20054;-73
2023/07/15 04:36:56;;;;;;;4.45;2.45;;;;;;;19.74;92.25;100166.94;6225870;28;20050;-72
2023/07/15 04:39:57;;;;;;;3.33;2.30;;;;;;;19.88;92.46;100165.59;6224979;28;20060;-72
2023/07/15 04:42:57;;;;;;;3.73;2.60;;;;;;;19.84;91.95;100167.72;6224660;28;20058;-72
2023/07/15 04:45:59;;;;;;;2.90;2.47;;;;;;;20.04;89.89;100168.41;6249478;28;20468;-72
2023/07/15 04:49:00;;;;;;;4.93;2.63;;;;;;;20.01;90.38;100171.34;6226623;28;20058;-71
2023/07/15 04:52:01;;;;;;;3.13;2.60;;;;;;;20.11;91.40;100171.28;6226406;28;20108;-71
2023/07/15 04:55:03;;;;;;;3.60;2.77;;;;;;;20.17;91.12;100181.25;6226030;28;20108;-71
2023/07/15 04:58:05;;;;;;;4.20;2.53;;;;;;;20.16;91.93;100174.31;6224852;28;20050;-71
2023/07/15 05:01:08;;;;;;;;;;;;;;;20.26;92.67;100179.50;6225439;28;20058;-72
2023/07/15 05:04:09;;;;;;;7.97;2.60;;;;;;;20.39;90.85;100181.78;6226373;28;19921;-72
2023/07/15 05:07:09;;;;;;;3.67;2.40;;;;;;;20.48;91.75;100178.19;6225700;28;20116;-71
2023/07/15 05:10:11;;;;;;;5.70;2.78;;;;;;;20.55;90.83;100181.91;6224088;28;20149;-72
2023/07/15 05:13:11;;;;;;;3.90;2.38;;;;;;;20.62;90.44;100182.13;6224573;28;20061;-71
2023/07/15 05:16:14;;;;;;;3.75;2.50;;;;;;;20.80;90.72;100171.47;6224358;28;20056;-72
2023/07/15 05:19:14;;;;;;;4.10;2.22;;;;;;;21.00;88.78;100175.56;6220871;28;20056;-71
2023/07/15 05:22:17;;;;;;;3.53;2.70;;;;;;;21.11;88.79;100175.28;6214214;28;20050;-72
2023/07/15 05:25:19;;;;;;;4.35;2.42;;;;;;;21.20;86.81;100170.00;6211997;28;20133;-72
2023/07/15 05:28:19;;;;;;;3.85;2.72;;;;;;;21.42;87.71;100172.09;6217825;28;20056;-72
2023/07/15 05:31:20;;;;;;;4.20;2.97;;;;;;;21.46;85.56;100175.28;6216769;28;20129;-72
2023/07/15 05:34:21;;;;;;;4.97;3.03;;;;;;;21.74;85.92;100175.81;6213636;28;20116;-72
2023/07/15 05:37:22;;;;;;;3.90;2.70;;;;;;;21.93;84.04;100174.72;6218311;28;20045;-72
2023/07/15 05:40:24;;;;;;;6.83;2.80;;;;;;;21.90;84.54;100186.47;6222278;28;20145;-72
2023/07/15 05:43:26;;;;;;;3.35;2.85;;;;;;;22.08;84.96;100189.00;6223461;28;20049;-72
2023/07/15 05:46:26;;;;;;;3.63;2.77;;;;;;;22.26;83.50;100185.41;6223045;28;20045;-72
2023/07/15 05:49:29;;;;;;;6.50;3.00;;;;;;;22.45;82.87;100182.38;6222759;28;20054;-72
2023/07/15 05:52:30;;;;;;;6.03;3.15;;;;;;;22.62;81.04;100185.84;6223012;28;20548;-73
2023/07/15 05:55:35;;;;;;;4.33;3.00;;;;;;;22.75;81.78;100185.31;6217853;28;20050;-72
2023/07/15 05:58:36;;;;;;;3.80;3.05;;;;;;;22.88;80.96;100184.81;6222775;28;20061;-72
2023/07/15 06:01:37;;;;;;;4.67;3.47;;;;;;;23.04;81.60;100182.13;6223663;28;20418;-72
2023/07/15 06:04:40;;;;;;;6.23;3.27;;;;;;;23.20;82.32;100185.72;6222581;28;20127;-72
2023/07/15 06:07:43;;;;;;;3.58;2.88;;;;;;;23.30;77.11;100191.66;6222445;28;20096;-72
2023/07/15 06:10:44;;;;;;;5.53;2.90;;;;;;;23.48;71.17;100194.09;6223366;28;20054;-72
2023/07/15 06:13:44;;;;;;;3.08;2.28;;;;;;;23.65;71.83;100187.66;6220728;28;20048;-72
2023/07/15 06:16:47;;;;;;;3.43;2.50;;;;;;;23.84;70.63;100198.91;6220766;28;20046;-72
2023/07/15 06:19:48;;;;;;;3.47;2.42;;;;;;;24.04;69.84;100194.75;6223238;28;20053;-72
2023/07/15 06:22:49;;;;;;;4.03;2.47;;;;;;;24.18;68.74;100193.16;6222094;28;20137;-73
2023/07/15 06:25:49;;;;;;;5.03;3.17;;;;;;;24.34;68.75;100190.38;6223263;28;20495;-72
2023/07/15 06:28:50;;;;;;;3.80;2.40;;;;;;;24.46;67.99;100198.78;6223045;28;20487;-72
2023/07/15 06:31:51;;;;;;;3.80;2.50;;;;;;;24.70;65.18;100202.22;6216863;28;20052;-72
2023/07/15 06:34:52;;;;;;;3.93;2.70;;;;;;;24.82;65.60;100199.94;6199692;28;20046;-73
2023/07/15 06:37:57;;;;;;;3.27;2.37;;;;;;;24.88;64.11;100201.88;6221893;28;20096;-73
2023/07/15 06:40:58;;;;;;;3.08;2.00;;;;;;;25.05;63.06;100200.69;6221724;28;20069;-72
2023/07/15 06:43:59;;;;;;;7.45;2.35;;;;;;;25.09;59.85;100207.31;6221955;28;20061;-72
2023/07/15 06:46:59;;;;;;;6.63;2.30;;;;;;;25.27;61.88;100200.81;6221708;28;20434;-72
2023/07/15 06:50:00;;;;;;;2.53;1.90;;;;;;;25.50;60.49;100200.66;6222758;28;20056;-72
2023/07/15 06:53:01;;;;;;;4.50;2.43;;;;;;;25.61;59.50;100202.84;6222829;28;20383;-72
2023/07/15 06:56:02;;;;;;;2.37;2.07;;;;;;;25.73;61.04;100205.84;6222614;28;20144;-72
2023/07/15 06:59:03;;;;;;;3.42;2.35;;;;;;;26.05;62.06;100201.09;6221211;28;20053;-72
2023/07/15 07:02:04;;;;;;;3.10;2.40;;;;;;;26.26;59.57;100197.56;6222627;28;20046;-72
2023/07/15 07:05:05;;;;;;;3.03;2.27;;;;;;;26.51;63.09;100203.31;6254100;28;20111;-72
2023/07/15 07:08:05;;;;;;;4.85;2.20;;;;;;;26.74;59.56;100200.44;6222378;28;20683;-73
2023/07/15 07:11:06;;;;;;;3.13;2.30;;;;;;;26.90;58.48;100193.94;6220799;28;20045;-73
2023/07/15 07:14:08;;;;;;;2.90;2.05;;;;;;;26.97;58.72;100196.66;6222358;28;20046;-72
2023/07/15 07:17:08;;;;;;;2.55;2.03;;;;;;;27.29;59.55;100198.69;6221408;28;20049;-72
2023/07/15 07:20:09;;;;;;;4.18;2.10;;;;;;;27.53;58.78;100197.34;6221021;28;20120;-73
2023/07/15 07:23:10;;;;;;;7.40;1.98;;;;;;;27.78;57.40;100202.16;6222106;28;20042;-72
2023/07/15 07:26:11;;;;;;;2.92;2.00;;;;;;;27.70;56.96;100194.31;6222261;28;20046;-72
2023/07/15 07:29:12;;;;;;;4.68;2.15;;;;;;;27.89;56.36;100200.78;6220955;28;20056;-72
2023/07/15 07:32:12;;;;;;;2.88;1.80;;;;;;;28.02;56.83;100202.66;6224653;28;20137;-73
2023/07/15 07:35:13;;;;;;;2.28;2.00;;;;;;;28.12;57.32;100203.88;6226105;28;20053;-73
2023/07/15 07:38:14;;;;;;;2.05;1.77;;;;;;;28.30;55.83;100208.66;6226000;28;20057;-74
2023/07/15 07:41:16;;;;;;;2.67;1.85;;;;;;;28.31;56.63;100209.47;6227133;28;20054;-73
2023/07/15 07:44:17;;;;;;;1.98;1.77;;;;;;;28.53;54.24;100212.81;6225967;28;20046;-72
2023/07/15 07:47:18;;;;;;;2.13;1.50;;;;;;;28.79;52.43;100221.88;6226936;28;20108;-72
2023/07/15 07:50:19;;;;;;;4.35;1.88;;;;;;;28.95;52.75;100221.41;6227002;28;20053;-74
2023/07/15 07:53:23;;;;;;;3.42;2.08;;;;;;;28.93;52.93;100223.47;6224911;28;20057;-74
2023/07/15 07:56:23;;;;;;;5.50;2.03;;;;;;;28.92;51.61;100225.34;6225451;28;20073;-74
2023/07/15 07:59:24;;;;;;;1.83;1.60;;;;;;;29.01;51.56;100225.94;6224338;28;20581;-72
2023/07/15 08:02:25;;;;;;;1.77;1.60;;;;;;;29.16;46.75;100230.28;6216066;28;20046;-74
2023/07/15 08:05:26;;;;;;;3.55;2.00;;;;;;;29.37;47.88;100227.31;6225891;28;20072;-74
2023/07/15 08:08:29;;;;;;;1.83;1.63;;;;;;;29.48;45.88;100225.81;6226897;28;20569;-74
2023/07/15 08:11:30;;;;;;;2.65;2.10;;;;;;;29.76;49.92;100230.88;6226826;28;20053;-72
2023/07/15 08:14:34;;;;;;;2.15;1.90;;;;;;;29.79;45.86;100224.25;6226362;28;20050;-72
2023/07/15 08:17:35;;;;;;;4.25;1.77;;;;;;;29.84;46.58;100224.44;6225085;28;20045;-72
2023/07/15 08:20:41;;;;;;;2.63;1.77;;;;;;;30.01;45.92;100228.25;6225392;28;20409;-74
2023/07/15 08:23:41;;;;;;;5.72;1.90;;;;;;;30.37;44.93;100226.75;6226127;28;20137;-74
2023/07/15 08:26:47;;;;;;;2.20;1.77;;;;;;;30.59;45.07;100237.16;6226790;28;20056;-74
2023/07/15 08:29:48;;;;;;;4.53;1.98;;;;;;;30.39;42.66;100230.06;6225956;28;20192;-74
2023/07/15 08:32:49;;;;;;;1.73;1.50;;;;;;;30.46;45.62;100228.16;6224201;28;20042;-72
2023/07/15 08:35:49;;;;;;;5.65;1.65;;;;;;;30.41;47.24;100229.84;6224744;28;20469;-74
2023/07/15 08:38:50;;;;;;;2.72;1.98;;;;;;;30.74;45.15;100229.53;6219713;28;20096;-74
2023/07/15 08:41:53;;;;;;;5.68;1.73;;;;;;;30.66;41.05;100235.22;6216687;28;20080;-74
2023/07/15 08:44:55;;;;;;;2.50;1.45;;;;;;;30.48;41.86;100236.00;6218164;28;20084;-73
2023/07/15 08:47:58;;;;;;;3.72;1.90;;;;;;;30.90;42.36;100226.28;6224502;28;20057;-72
2023/07/15 08:51:00;;;;;;;2.40;1.70;;;;;;;30.88;43.13;100232.97;6223704;28;20052;-72
2023/07/15 08:54:05;;;;;;;3.85;1.60;;;;;;;31.13;44.59;100231.03;6224215;28;20513;-72
2023/07/15 08:57:08;;;;;;;1.88;1.42;;;;;;;31.65;44.42;100227.94;6225597;28;20613;-74
2023/07/15 09:00:11;;;;;;;4.22;2.20;;;;;;;31.26;39.44;100221.16;6224286;28;20160;-74
2023/07/15 09:03:11;;;;;;;2.03;1.45;;;;;;;31.53;39.31;100224.38;6225402;28;20046;-74
2023/07/15 09:06:14;;;;;;;2.92;1.80;;;;;;;31.75;39.89;100218.47;6225445;28;20046;-72
2023/07/15 09:09:15;;;;;;;2.35;1.67;;;;;;;31.88;38.39;100215.59;6225036;28;20112;-72
2023/07/15 09:12:16;;;;;;;4.65;1.63;;;;;;;31.65;42.19;100227.09;6224324;28;20050;-71
2023/07/15 09:15:18;;;;;;;1.35;1.25;;;;;;;31.65;38.99;100224.41;6223888;28;20049;-74
2023/07/15 09:18:20;;;;;;;1.40;1.30;;;;;;;31.05;41.57;100225.09;6225334;28;20092;-72
2023/07/15 09:21:20;;;;;;;2.00;1.50;;;;;;;31.32;41.67;100217.56;6224727;28;20054;-72
2023/07/15 09:24:22;;;;;;;1.88;1.60;;;;;;;31.72;40.72;100223.25;6223637;28;20069;-72
2023/07/15 09:27:26;;;;;;;2.80;1.77;;;;;;;31.85;41.68;100227.63;6223072;28;20112;-71
2023/07/15 09:30:26;;;;;;;3.47;1.50;;;;;;;32.20;42.06;100229.63;6223581;28;20494;-74
2023/07/15 09:33:29;;;;;;;;;;;;;;;31.81;36.55;100218.34;6225548;28;20045;-71
2023/07/15 09:36:33;;;;;;;3.17;1.65;;;;;;;32.15;38.72;100232.22;6224341;28;20378;-74
2023/07/15 09:39:34;;;;;;;1.65;1.20;;;;;;;32.44;39.67;100229.69;6223497;28;20052;-74
2023/07/15 09:42:55;;;;;;;3.03;1.80;;;;;;;32.73;37.50;100230.66;6224146;28;20041;-72
2023/07/15 09:45:57;;;;;;;1.55;1.45;;;;;;;32.59;37.58;100223.84;6224376;28;20061;-72
2023/07/15 09:49:00;;;;;;;8.63;1.92;;;;;;;32.68;38.61;100223.25;6222761;28;20419;-72
2023/07/15 09:52:03;;;;;;;2.17;1.30;;;;;;;32.70;39.08;100228.44;6224205;28;20050;-74
2023/07/15 09:55:04;;;;;;;1.58;1.20;;;;;;;32.70;37.21;100226.56;6222513;28;20054;-74
2023/07/15 09:58:24;;;;;;;3.88;1.60;;;;;;;32.51;38.10;100224.97;6222927;28;20050;-74
2023/07/15 10:01:44;;;;;;;2.25;1.63;;;;;;;32.58;35.41;100223.03;6223842;28;20058;-74
2023/07/15 10:04:46;;;;;;;3.17;1.48;;;;;;;32.69;38.85;100215.97;6223283;28;20084;-75
2023/07/15 10:07:47;;;;;;;2.50;1.35;;;;;;;32.89;37.16;100224.53;6222873;28;20137;-75
2023/07/15 10:10:50;;;;;;;;;;;;;;;33.26;39.48;100224.25;6222795;28;20490;-74
2023/07/15 10:13:56;;;;;;;2.78;1.25;;;;;;;33.40;37.06;100216.69;6222286;28;19921;-74
2023/07/15 10:17:08;;;;;;;1.30;1.20;;;;;;;33.57;34.68;100215.94;6222600;28;20056;-74
2023/07/15 10:20:10;;;;;;;1.75;1.42;;;;;;;33.74;34.02;100224.13;6221759;28;20108;-74
2023/07/15 10:23:11;;;;;;;2.90;1.25;;;;;;;33.51;35.16;100223.94;6222437;28;20081;-72
2023/07/15 10:26:21;;;;;;;2.67;1.48;;;;;;;33.71;36.74;100220.84;6221650;28;20056;-72
2023/07/15 10:29:24;;;;;;;2.22;1.17;;;;;;;33.69;36.19;100220.25;6223283;28;20054;-72
2023/07/15 10:32:25;;;;;;;2.08;1.38;;;;;;;34.01;36.44;100210.78;6223077;28;20055;-74
2023/07/15 10:35:29;;;;;;;2.60;1.42;;;;;;;34.19;34.51;100212.47;6223377;28;20050;-72
2023/07/15 10:38:31;;;;;;;1.95;1.20;;;;;;;34.16;33.89;100202.94;6221145;28;20049;-74
2023/07/15 10:41:40;;;;;;;1.27;1.08;;;;;;;34.42;31.50;100197.94;6216669;28;20077;-74
2023/07/15 10:44:51;;;;;;;3.42;1.20;;;;;;;34.50;32.98;100194.81;6207168;28;20054;-72
2023/07/15 10:47:51;;;;;;;2.45;1.30;;;;;;;34.46;33.75;100197.19;6197585;28;20050;-74
2023/07/15 10:50:53;;;;;;;1.80;1.20;;;;;;;34.66;33.58;100201.31;6198557;28;20055;-72
2023/07/15 10:53:54;;;;;;;3.25;1.55;;;;;;;34.78;34.97;100196.59;6229726;28;20487;-72
2023/07/15 10:56:55;;;;;;;2.22;1.42;;;;;;;34.43;32.37;100196.84;6197246;28;20143;-72
2023/07/15 10:59:58;;;;;;;1.13;1.02;;;;;;;34.17;31.37;100198.38;6214100;28;20088;-72
2023/07/15 11:02:59;;;;;;;5.20;1.13;;;;;;;34.40;34.18;100191.94;6216433;28;20042;-73
2023/07/15 11:06:03;;;;;;;1.27;1.17;;;;;;;34.79;31.19;100198.22;6221730;28;20141;-74
2023/07/15 11:09:21;;;;;;;1.60;1.25;;;;;;;34.94;32.91;100197.59;6211659;28;20061;-74
2023/07/15 11:12:21;;;;;;;2.90;1.30;;;;;;;34.96;33.70;100190.03;6203060;28;20069;-74
2023/07/15 11:15:27;;;;;;;1.45;1.20;;;;;;;35.15;33.13;100189.75;6210140;28;20042;-72
2023/07/15 11:18:28;;;;;;;2.15;1.45;;;;;;;35.15;32.58;100192.47;6217521;28;20046;-74
2023/07/15 11:21:32;;;;;;;1.63;1.10;;;;;;;35.15;33.11;100182.47;6221513;28;20046;-74
2023/07/15 11:24:35;;;;;;;2.53;1.17;;;;;;;35.21;32.54;100183.31;6220866;28;20180;-74
2023/07/15 11:27:36;;;;;;;2.33;1.50;;;;;;;35.11;32.36;100179.38;6219603;28;20049;-74
2023/07/15 11:30:43;;;;;;;2.45;1.10;;;;;;;35.24;30.12;100178.22;6228353;28;20050;-74
2023/07/15 11:33:43;;;;;;;2.08;1.60;;;;;;;34.99;31.29;100176.00;6221152;28;20053;-74
2023/07/15 11:36:46;;;;;;;4.65;1.30;;;;;;;34.95;31.41;100174.03;6212343;28;20058;-74
2023/07/15 11:39:46;;;;;;;2.78;1.40;;;;;;;35.47;31.20;100173.56;6220465;28;20414;-74
2023/07/15 11:42:48;;;;;;;1.42;1.25;;;;;;;35.40;30.02;100176.50;6218508;28;20045;-72
2023/07/15 11:45:49;;;;;;;5.13;1.42;;;;;;;35.54;30.91;100173.34;6223017;28;20062;-74
2023/07/15 11:48:50;;;;;;;2.90;1.40;;;;;;;35.23;30.98;100164.91;6221400;28;20092;-72
2023/07/15 11:51:55;;;;;;;3.95;1.13;;;;;;;35.21;30.65;100165.16;6218375;28;20046;-73
2023/07/15 11:55:03;;;;;;;2.05;1.25;;;;;;;35.23;31.51;100157.59;6221435;28;20053;-72
2023/07/15 11:58:04;;;;;;;1.95;1.10;;;;;;;35.17;30.39;100155.91;6212640;28;20094;-74
2023/07/15 12:01:06;;;;;;;2.03;1.33;;;;;;;35.16;31.88;100153.44;6216505;28;20054;-74
2023/07/15 12:04:15;;;;;;;1.73;1.40;;;;;;;35.36;32.41;100148.22;6216829;28;20395;-74
2023/07/15 12:07:19;;;;;;;2.95;1.67;;;;;;;35.19;34.02;100139.34;6201912;28;20439;-74
2023/07/15 12:10:20;;;;;;;1.98;1.30;;;;;;;34.73;32.79;100145.03;6235768;28;20107;-74
2023/07/15 12:13:21;;;;;;;1.58;1.17;;;;;;;35.22;30.41;100133.44;6216793;28;20046;-72
2023/07/15 12:16:23;;;;;;;1.50;1.27;;;;;;;35.48;32.78;100129.91;6220371;28;20064;-74
2023/07/15 12:19:28;;;;;;;1.83;1.40;;;;;;;35.43;31.30;100132.56;6220911;28;20386;-72
2023/07/15 12:22:29;;;;;;;2.63;1.50;;;;;;;35.72;30.87;100129.59;6223461;28;20073;-74
2023/07/15 12:25:32;;;;;;;1.38;1.20;;;;;;;34.54;31.67;100130.13;6220301;28;20415;-74
2023/07/15 12:28:34;;;;;;;2.20;1.27;;;;;;;34.55;33.22;100134.47;6221923;28;20569;-74
2023/07/15 12:31:37;;;;;;;3.10;1.25;;;;;;;34.57;32.44;100125.00;6223092;28;20049;-74
2023/07/15 12:34:40;;;;;;;1.58;1.23;;;;;;;34.59;30.65;100125.56;6223230;28;20196;-74
2023/07/15 12:37:41;;;;;;;2.10;1.40;;;;;;;33.72;32.57;100119.66;6203411;28;20081;-72
2023/07/15 12:40:42;;;;;;;1.08;0.98;;;;;;;34.41;30.90;100115.88;6201505;28;20050;-74
2023/07/15 12:43:42;;;;;;;1.92;1.10;;;;;;;34.61;31.44;100112.59;6217026;28;20053;-74
2023/07/15 12:46:43;;;;;;;1.92;1.42;;;;;;;34.77;31.59;100110.13;6222212;28;20108;-72
2023/07/15 12:49:46;;;;;;;1.98;1.20;;;;;;;34.81;31.24;100112.06;6222697;28;20505;-72
2023/07/15 12:52:47;;;;;;;1.10;1.00;;;;;;;34.77;31.76;100110.94;6223568;28;20112;-72
2023/07/15 12:55:48;;;;;;;1.40;1.30;;;;;;;34.91;32.16;100111.38;6222127;28;20574;-72
2023/07/15 12:58:49;;;;;;;1.15;1.05;;;;;;;35.03;30.19;100103.94;6222610;28;20065;-74
2023/07/15 13:01:52;;;;;;;1.48;1.10;;;;;;;34.96;31.03;100099.78;6218822;28;20050;-74
2023/07/15 13:04:54;;;;;;;2.22;1.13;;;;;;;35.01;31.98;100102.56;6223251;28;20049;-74
2023/07/15 13:07:55;;;;;;;5.45;1.10;;;;;;;35.00;29.62;100101.72;6225528;28;20050;-74
2023/07/15 13:10:56;;;;;;;1.73;1.10;;;;;;;34.75;28.48;100098.72;6224492;28;20089;-72
2023/07/15 13:13:57;;;;;;;1.60;1.15;;;;;;;34.45;30.35;100089.94;6221938;28;20112;-71
2023/07/15 13:16:57;;;;;;;1.20;1.10;;;;;;;34.51;28.47;100097.06;6214294;28;20112;-72
2023/07/15 13:19:58;;;;;;;2.55;1.60;;;;;;;34.58;33.62;100087.91;6214284;28;20583;-72
2023/07/15 13:23:03;;;;;;;1.70;1.40;;;;;;;34.83;30.66;100090.97;6223404;28;20057;-72
2023/07/15 13:26:06;;;;;;;4.93;1.30;;;;;;;34.67;29.91;100086.44;6222149;28;20045;-72
2023/07/15 13:29:07;;;;;;;1.20;1.10;;;;;;;34.48;31.13;100086.69;6222469;28;20081;-72
2023/07/15 13:32:08;;;;;;;2.17;1.02;;;;;;;34.41;31.83;100091.50;6224403;28;20042;-73
2023/07/15 13:35:09;;;;;;;1.88;1.40;;;;;;;34.54;31.43;100082.19;6223398;28;20510;-73
2023/07/15 13:38:09;;;;;;;2.33;1.20;;;;;;;34.46;31.26;100078.00;6222496;28;20053;-72
2023/07/15 13:41:12;;;;;;;2.50;1.25;;;;;;;34.35;33.26;100078.13;6223276;28;20053;-73
2023/07/15 13:44:13;;;;;;;1.85;1.42;;;;;;;34.10;33.30;100076.69;6209629;28;20517;-72
2023/07/15 13:47:14;;;;;;;1.75;1.30;;;;;;;34.19;32.15;100069.78;6208426;28;20061;-72
2023/07/15 13:50:15;;;;;;;1.90;1.10;;;;;;;34.25;31.70;100070.69;6216106;28;20054;-73
2023/07/15 13:53:16;;;;;;;1.40;1.27;;;;;;;33.59;32.33;100065.03;6224040;28;20474;-72
2023/07/15 13:56:19;;;;;;;2.78;1.40;;;;;;;33.52;32.48;100065.19;6222776;28;20046;-73
2023/07/15 13:59:20;;;;;;;1.30;1.20;;;;;;;33.71;35.52;100058.50;6222675;28;20072;-72
2023/07/15 14:02:21;;;;;;;2.05;1.13;;;;;;;34.16;32.91;100058.63;6222596;28;20052;-72
2023/07/15 14:05:21;;;;;;;2.33;1.20;;;;;;;34.13;32.21;100054.56;6239092;28;20053;-72
2023/07/15 14:08:22;;;;;;;0.98;0.85;;;;;;;34.08;33.87;100044.44;6223846;28;20046;-73